sensor_id;sensor_type;location;lat;lon;timestamp;P1;durP1;ratioP1;P2;durP2;ratioP2
8421;SDS011;4248;48.196;10.924;2023-07-24T00:00:20;16.37;;;8.80;;
8421;SDS011;4248;48.196;10.924;2023-07-24T00:02:45;18.73;;;8.80;;
8421;SDS011;4248;48.196;10.924;2023-07-24T00:05:11;24.73;;;9.97;;
8421;SDS011;4248;48.196;10.924;2023-07-24T00:07:37;22.33;;;8.63;;
8421;SDS011;4248;48.196;10.924;2023-07-24T00:10:02;19.30;;;9.70;;
8421;SDS011;4248;48.196;10.924;2023-07-24T00:12:28;23.40;;;10.10;;
8421;SDS011;4248;48.196;10.924;2023-07-24T00:14:54;20.57;;;9.50;;
8421;SDS011;4248;48.196;10.924;2023-07-24T00:17:20;22.63;;;10.50;;
8421;SDS011;4248;48.196;10.924;2023-07-24T00:19:45;22.10;;;10.13;;
8421;SDS011;4248;48.196;10.924;2023-07-24T00:22:11;24.80;;;9.97;;
8421;SDS011;4248;48.196;10.924;2023-07-24T00:24:36;21.60;;;9.83;;
8421;SDS011;4248;48.196;10.924;2023-07-24T00:27:02;19.57;;;9.80;;
8421;SDS011;4248;48.196;10.924;2023-07-24T00:29:28;19.30;;;9.57;;
8421;SDS011;4248;48.196;10.924;2023-07-24T00:31:53;20.30;;;9.80;;
8421;SDS011;4248;48.196;10.924;2023-07-24T00:34:19;21.37;;;8.90;;
8421;SDS011;4248;48.196;10.924;2023-07-24T00:36:45;17.03;;;8.70;;
8421;SDS011;4248;48.196;10.924;2023-07-24T00:39:10;18.83;;;9.43;;
8421;SDS011;4248;48.196;10.924;2023-07-24T00:41:36;21.50;;;9.00;;
8421;SDS011;4248;48.196;10.924;2023-07-24T00:44:02;16.90;;;8.60;;
8421;SDS011;4248;48.196;10.924;2023-07-24T00:46:27;16.50;;;9.00;;
8421;SDS011;4248;48.196;10.924;2023-07-24T00:48:57;20.03;;;9.27;;
8421;SDS011;4248;48.196;10.924;2023-07-24T00:51:24;24.93;;;8.97;;
8421;SDS011;4248;48.196;10.924;2023-07-24T00:53:52;16.37;;;8.93;;
8421;SDS011;4248;48.196;10.924;2023-07-24T00:56:30;15.70;;;8.37;;
8421;SDS011;4248;48.196;10.924;2023-07-24T00:58:57;21.50;;;9.60;;
8421;SDS011;4248;48.196;10.924;2023-07-24T01:01:23;18.00;;;9.70;;
8421;SDS011;4248;48.196;10.924;2023-07-24T01:03:49;17.10;;;9.40;;
8421;SDS011;4248;48.196;10.924;2023-07-24T01:06:16;24.33;;;9.70;;
8421;SDS011;4248;48.196;10.924;2023-07-24T01:08:41;21.03;;;9.40;;
8421;SDS011;4248;48.196;10.924;2023-07-24T01:13:47;24.73;;;9.40;;
8421;SDS011;4248;48.196;10.924;2023-07-24T01:16:30;16.83;;;9.30;;
8421;SDS011;4248;48.196;10.924;2023-07-24T01:19:02;21.73;;;9.80;;
8421;SDS011;4248;48.196;10.924;2023-07-24T01:21:38;16.90;;;9.23;;
8421;SDS011;4248;48.196;10.924;2023-07-24T01:26:49;20.27;;;9.73;;
8421;SDS011;4248;48.196;10.924;2023-07-24T01:29:15;21.20;;;10.97;;
8421;SDS011;4248;48.196;10.924;2023-07-24T01:31:41;22.80;;;11.20;;
8421;SDS011;4248;48.196;10.924;2023-07-24T01:34:06;27.73;;;11.10;;
8421;SDS011;4248;48.196;10.924;2023-07-24T01:36:32;19.80;;;11.40;;
8421;SDS011;4248;48.196;10.924;2023-07-24T01:38:58;21.50;;;10.03;;
8421;SDS011;4248;48.196;10.924;2023-07-24T01:41:25;25.23;;;10.20;;
8421;SDS011;4248;48.196;10.924;2023-07-24T01:43:51;19.17;;;9.43;;
8421;SDS011;4248;48.196;10.924;2023-07-24T01:46:17;16.63;;;9.60;;
8421;SDS011;4248;48.196;10.924;2023-07-24T01:48:42;16.70;;;9.33;;
8421;SDS011;4248;48.196;10.924;2023-07-24T01:51:08;26.80;;;9.50;;
8421;SDS011;4248;48.196;10.924;2023-07-24T01:53:33;21.67;;;9.87;;
8421;SDS011;4248;48.196;10.924;2023-07-24T01:55:59;22.93;;;10.97;;
8421;SDS011;4248;48.196;10.924;2023-07-24T01:58:25;24.50;;;11.30;;
8421;SDS011;4248;48.196;10.924;2023-07-24T02:00:50;22.70;;;11.30;;
8421;SDS011;4248;48.196;10.924;2023-07-24T02:03:16;21.90;;;11.23;;
8421;SDS011;4248;48.196;10.924;2023-07-24T02:05:41;22.20;;;11.30;;
8421;SDS011;4248;48.196;10.924;2023-07-24T02:08:07;20.87;;;10.80;;
8421;SDS011;4248;48.196;10.924;2023-07-24T02:10:36;24.60;;;11.33;;
8421;SDS011;4248;48.196;10.924;2023-07-24T02:13:02;23.50;;;12.03;;
8421;SDS011;4248;48.196;10.924;2023-07-24T02:15:28;23.83;;;11.37;;
8421;SDS011;4248;48.196;10.924;2023-07-24T02:17:53;20.60;;;10.43;;
8421;SDS011;4248;48.196;10.924;2023-07-24T02:20:19;26.30;;;12.47;;
8421;SDS011;4248;48.196;10.924;2023-07-24T02:22:44;23.37;;;11.40;;
8421;SDS011;4248;48.196;10.924;2023-07-24T02:25:10;21.40;;;10.80;;
8421;SDS011;4248;48.196;10.924;2023-07-24T02:27:35;22.40;;;11.50;;
8421;SDS011;4248;48.196;10.924;2023-07-24T02:30:01;24.70;;;10.40;;
8421;SDS011;4248;48.196;10.924;2023-07-24T02:32:27;23.07;;;10.90;;
8421;SDS011;4248;48.196;10.924;2023-07-24T02:34:53;20.10;;;11.73;;
8421;SDS011;4248;48.196;10.924;2023-07-24T02:37:19;27.70;;;12.03;;
8421;SDS011;4248;48.196;10.924;2023-07-24T02:39:44;23.80;;;11.37;;
8421;SDS011;4248;48.196;10.924;2023-07-24T02:42:10;20.27;;;10.70;;
8421;SDS011;4248;48.196;10.924;2023-07-24T02:44:36;21.57;;;11.77;;
8421;SDS011;4248;48.196;10.924;2023-07-24T02:47:02;30.00;;;12.67;;
8421;SDS011;4248;48.196;10.924;2023-07-24T02:49:28;19.73;;;10.80;;
8421;SDS011;4248;48.196;10.924;2023-07-24T02:51:54;20.40;;;11.93;;
8421;SDS011;4248;48.196;10.924;2023-07-24T02:54:20;25.10;;;11.80;;
8421;SDS011;4248;48.196;10.924;2023-07-24T02:56:45;25.20;;;13.07;;
8421;SDS011;4248;48.196;10.924;2023-07-24T02:59:11;18.93;;;10.30;;
8421;SDS011;4248;48.196;10.924;2023-07-24T03:01:36;24.60;;;12.10;;
8421;SDS011;4248;48.196;10.924;2023-07-24T03:04:02;21.07;;;11.27;;
8421;SDS011;4248;48.196;10.924;2023-07-24T03:06:30;23.90;;;11.27;;
8421;SDS011;4248;48.196;10.924;2023-07-24T03:08:56;20.20;;;10.80;;
8421;SDS011;4248;48.196;10.924;2023-07-24T03:11:21;24.40;;;12.23;;
8421;SDS011;4248;48.196;10.924;2023-07-24T03:13:47;23.13;;;10.63;;
8421;SDS011;4248;48.196;10.924;2023-07-24T03:16:12;24.80;;;11.87;;
8421;SDS011;4248;48.196;10.924;2023-07-24T03:18:38;22.33;;;11.00;;
8421;SDS011;4248;48.196;10.924;2023-07-24T03:21:03;24.93;;;11.83;;
8421;SDS011;4248;48.196;10.924;2023-07-24T03:23:29;20.50;;;11.20;;
8421;SDS011;4248;48.196;10.924;2023-07-24T03:25:54;22.57;;;11.87;;
8421;SDS011;4248;48.196;10.924;2023-07-24T03:28:20;22.37;;;11.40;;
8421;SDS011;4248;48.196;10.924;2023-07-24T03:30:46;20.87;;;12.10;;
8421;SDS011;4248;48.196;10.924;2023-07-24T03:33:11;22.77;;;10.23;;
8421;SDS011;4248;48.196;10.924;2023-07-24T03:35:37;29.13;;;13.03;;
8421;SDS011;4248;48.196;10.924;2023-07-24T03:38:04;25.23;;;13.47;;
8421;SDS011;4248;48.196;10.924;2023-07-24T03:40:30;26.33;;;12.70;;
8421;SDS011;4248;48.196;10.924;2023-07-24T03:42:55;23.40;;;11.87;;
8421;SDS011;4248;48.196;10.924;2023-07-24T03:45:21;28.70;;;12.00;;
8421;SDS011;4248;48.196;10.924;2023-07-24T03:47:46;23.20;;;12.43;;
8421;SDS011;4248;48.196;10.924;2023-07-24T03:50:12;29.23;;;11.87;;
8421;SDS011;4248;48.196;10.924;2023-07-24T03:52:37;25.37;;;12.57;;
8421;SDS011;4248;48.196;10.924;2023-07-24T03:55:03;24.40;;;11.77;;
8421;SDS011;4248;48.196;10.924;2023-07-24T03:57:29;24.23;;;12.93;;
8421;SDS011;4248;48.196;10.924;2023-07-24T03:59:54;21.70;;;11.43;;
8421;SDS011;4248;48.196;10.924;2023-07-24T04:02:20;29.93;;;13.17;;
8421;SDS011;4248;48.196;10.924;2023-07-24T04:04:47;24.50;;;12.17;;
8421;SDS011;4248;48.196;10.924;2023-07-24T04:07:12;26.33;;;11.87;;
8421;SDS011;4248;48.196;10.924;2023-07-24T04:09:38;24.20;;;11.87;;
8421;SDS011;4248;48.196;10.924;2023-07-24T04:12:04;22.00;;;11.80;;
8421;SDS011;4248;48.196;10.924;2023-07-24T04:14:29;22.60;;;11.40;;
8421;SDS011;4248;48.196;10.924;2023-07-24T04:16:55;23.30;;;12.60;;
8421;SDS011;4248;48.196;10.924;2023-07-24T04:19:20;29.27;;;12.37;;
8421;SDS011;4248;48.196;10.924;2023-07-24T04:21:46;22.70;;;11.13;;
8421;SDS011;4248;48.196;10.924;2023-07-24T04:24:11;29.37;;;11.40;;
8421;SDS011;4248;48.196;10.924;2023-07-24T04:26:37;23.53;;;11.60;;
8421;SDS011;4248;48.196;10.924;2023-07-24T04:29:04;21.73;;;12.67;;
8421;SDS011;4248;48.196;10.924;2023-07-24T04:31:30;24.37;;;12.30;;
8421;SDS011;4248;48.196;10.924;2023-07-24T04:33:56;25.57;;;11.63;;
8421;SDS011;4248;48.196;10.924;2023-07-24T04:36:21;18.53;;;11.13;;
8421;SDS011;4248;48.196;10.924;2023-07-24T04:38:47;24.10;;;12.77;;
8421;SDS011;4248;48.196;10.924;2023-07-24T04:41:12;23.80;;;12.63;;
8421;SDS011;4248;48.196;10.924;2023-07-24T04:43:38;19.63;;;10.10;;
8421;SDS011;4248;48.196;10.924;2023-07-24T04:46:03;23.60;;;11.97;;
8421;SDS011;4248;48.196;10.924;2023-07-24T04:48:29;21.50;;;11.10;;
8421;SDS011;4248;48.196;10.924;2023-07-24T04:50:55;20.87;;;10.97;;
8421;SDS011;4248;48.196;10.924;2023-07-24T04:53:21;21.93;;;11.10;;
8421;SDS011;4248;48.196;10.924;2023-07-24T04:55:47;20.70;;;10.17;;
8421;SDS011;4248;48.196;10.924;2023-07-24T04:58:13;24.57;;;10.97;;
8421;SDS011;4248;48.196;10.924;2023-07-24T05:00:39;17.90;;;10.57;;
8421;SDS011;4248;48.196;10.924;2023-07-24T05:03:04;21.23;;;11.30;;
8421;SDS011;4248;48.196;10.924;2023-07-24T05:05:31;21.40;;;11.00;;
8421;SDS011;4248;48.196;10.924;2023-07-24T05:07:57;22.70;;;10.23;;
8421;SDS011;4248;48.196;10.924;2023-07-24T05:10:22;19.27;;;9.73;;
8421;SDS011;4248;48.196;10.924;2023-07-24T05:12:48;25.00;;;11.57;;
8421;SDS011;4248;48.196;10.924;2023-07-24T05:15:13;22.40;;;11.83;;
8421;SDS011;4248;48.196;10.924;2023-07-24T05:17:41;20.13;;;11.17;;
8421;SDS011;4248;48.196;10.924;2023-07-24T05:20:10;19.63;;;11.23;;
8421;SDS011;4248;48.196;10.924;2023-07-24T05:22:36;19.30;;;11.00;;
8421;SDS011;4248;48.196;10.924;2023-07-24T05:25:01;19.93;;;10.30;;
8421;SDS011;4248;48.196;10.924;2023-07-24T05:27:27;25.80;;;10.97;;
8421;SDS011;4248;48.196;10.924;2023-07-24T05:29:54;19.60;;;10.67;;
8421;SDS011;4248;48.196;10.924;2023-07-24T05:32:21;19.57;;;10.50;;
8421;SDS011;4248;48.196;10.924;2023-07-24T05:34:47;17.83;;;10.10;;
8421;SDS011;4248;48.196;10.924;2023-07-24T05:37:12;19.50;;;10.57;;
8421;SDS011;4248;48.196;10.924;2023-07-24T05:39:38;16.60;;;9.93;;
8421;SDS011;4248;48.196;10.924;2023-07-24T05:42:03;15.07;;;9.43;;
8421;SDS011;4248;48.196;10.924;2023-07-24T05:44:29;16.77;;;9.60;;
8421;SDS011;4248;48.196;10.924;2023-07-24T05:46:55;21.43;;;9.53;;
8421;SDS011;4248;48.196;10.924;2023-07-24T05:49:20;20.27;;;9.40;;
8421;SDS011;4248;48.196;10.924;2023-07-24T05:51:46;16.63;;;9.90;;
8421;SDS011;4248;48.196;10.924;2023-07-24T05:54:11;18.13;;;9.50;;
8421;SDS011;4248;48.196;10.924;2023-07-24T05:56:37;16.67;;;9.70;;
8421;SDS011;4248;48.196;10.924;2023-07-24T05:59:02;18.60;;;9.13;;
8421;SDS011;4248;48.196;10.924;2023-07-24T06:01:28;15.20;;;8.93;;
8421;SDS011;4248;48.196;10.924;2023-07-24T06:03:53;16.97;;;9.50;;
8421;SDS011;4248;48.196;10.924;2023-07-24T06:06:19;14.83;;;8.43;;
8421;SDS011;4248;48.196;10.924;2023-07-24T06:08:45;15.10;;;9.30;;
8421;SDS011;4248;48.196;10.924;2023-07-24T06:11:12;18.60;;;10.50;;
8421;SDS011;4248;48.196;10.924;2023-07-24T06:13:37;21.57;;;9.63;;
8421;SDS011;4248;48.196;10.924;2023-07-24T06:16:03;23.03;;;9.73;;
8421;SDS011;4248;48.196;10.924;2023-07-24T06:18:29;17.17;;;10.40;;
8421;SDS011;4248;48.196;10.924;2023-07-24T06:20:54;18.83;;;9.17;;
8421;SDS011;4248;48.196;10.924;2023-07-24T06:23:20;19.77;;;9.20;;
8421;SDS011;4248;48.196;10.924;2023-07-24T06:25:45;15.67;;;9.63;;
8421;SDS011;4248;48.196;10.924;2023-07-24T06:28:11;15.80;;;9.70;;
8421;SDS011;4248;48.196;10.924;2023-07-24T06:30:40;17.30;;;10.00;;
8421;SDS011;4248;48.196;10.924;2023-07-24T06:33:06;14.70;;;9.30;;
8421;SDS011;4248;48.196;10.924;2023-07-24T06:35:31;16.63;;;8.90;;
8421;SDS011;4248;48.196;10.924;2023-07-24T06:37:57;17.10;;;10.67;;
8421;SDS011;4248;48.196;10.924;2023-07-24T06:40:22;16.80;;;10.10;;
8421;SDS011;4248;48.196;10.924;2023-07-24T06:42:48;19.83;;;9.53;;
8421;SDS011;4248;48.196;10.924;2023-07-24T06:45:14;22.70;;;10.27;;
8421;SDS011;4248;48.196;10.924;2023-07-24T06:47:39;16.70;;;9.43;;
8421;SDS011;4248;48.196;10.924;2023-07-24T06:50:05;16.43;;;9.47;;
8421;SDS011;4248;48.196;10.924;2023-07-24T06:52:32;19.20;;;10.10;;
8421;SDS011;4248;48.196;10.924;2023-07-24T06:54:58;16.93;;;9.37;;
8421;SDS011;4248;48.196;10.924;2023-07-24T06:57:24;14.27;;;8.03;;
8421;SDS011;4248;48.196;10.924;2023-07-24T06:59:49;19.80;;;9.30;;
8421;SDS011;4248;48.196;10.924;2023-07-24T07:02:15;18.47;;;8.63;;
8421;SDS011;4248;48.196;10.924;2023-07-24T07:04:41;14.47;;;8.17;;
8421;SDS011;4248;48.196;10.924;2023-07-24T07:07:06;19.70;;;9.10;;
8421;SDS011;4248;48.196;10.924;2023-07-24T07:09:32;18.77;;;8.80;;
8421;SDS011;4248;48.196;10.924;2023-07-24T07:11:58;21.40;;;9.70;;
8421;SDS011;4248;48.196;10.924;2023-07-24T07:14:23;22.47;;;7.90;;
8421;SDS011;4248;48.196;10.924;2023-07-24T07:16:49;18.83;;;9.87;;
8421;SDS011;4248;48.196;10.924;2023-07-24T07:19:15;15.60;;;8.60;;
8421;SDS011;4248;48.196;10.924;2023-07-24T07:21:40;16.47;;;8.50;;
8421;SDS011;4248;48.196;10.924;2023-07-24T07:24:06;17.13;;;8.60;;
8421;SDS011;4248;48.196;10.924;2023-07-24T07:26:31;14.20;;;8.73;;
8421;SDS011;4248;48.196;10.924;2023-07-24T07:28:58;18.33;;;9.60;;
8421;SDS011;4248;48.196;10.924;2023-07-24T07:31:23;14.40;;;8.17;;
8421;SDS011;4248;48.196;10.924;2023-07-24T07:33:49;14.80;;;7.73;;
8421;SDS011;4248;48.196;10.924;2023-07-24T07:36:14;14.67;;;8.60;;
8421;SDS011;4248;48.196;10.924;2023-07-24T07:38:40;15.73;;;8.27;;
8421;SDS011;4248;48.196;10.924;2023-07-24T07:41:06;16.03;;;8.07;;
8421;SDS011;4248;48.196;10.924;2023-07-24T07:43:31;17.13;;;8.53;;
8421;SDS011;4248;48.196;10.924;2023-07-24T07:45:57;16.17;;;8.60;;
8421;SDS011;4248;48.196;10.924;2023-07-24T07:48:24;14.97;;;7.87;;
8421;SDS011;4248;48.196;10.924;2023-07-24T07:50:50;13.40;;;7.90;;
8421;SDS011;4248;48.196;10.924;2023-07-24T07:53:16;14.40;;;8.50;;
8421;SDS011;4248;48.196;10.924;2023-07-24T07:55:42;16.80;;;7.43;;
8421;SDS011;4248;48.196;10.924;2023-07-24T07:58:08;18.10;;;7.40;;
8421;SDS011;4248;48.196;10.924;2023-07-24T08:00:34;13.60;;;7.50;;
8421;SDS011;4248;48.196;10.924;2023-07-24T08:03:00;13.73;;;6.80;;
8421;SDS011;4248;48.196;10.924;2023-07-24T08:05:25;15.80;;;8.77;;
8421;SDS011;4248;48.196;10.924;2023-07-24T08:07:51;14.83;;;7.70;;
8421;SDS011;4248;48.196;10.924;2023-07-24T08:10:16;14.97;;;8.47;;
8421;SDS011;4248;48.196;10.924;2023-07-24T08:12:42;13.77;;;7.87;;
8421;SDS011;4248;48.196;10.924;2023-07-24T08:15:08;12.63;;;7.43;;
8421;SDS011;4248;48.196;10.924;2023-07-24T08:17:34;16.70;;;8.43;;
8421;SDS011;4248;48.196;10.924;2023-07-24T08:20:00;19.77;;;8.80;;
8421;SDS011;4248;48.196;10.924;2023-07-24T08:22:26;16.07;;;8.50;;
8421;SDS011;4248;48.196;10.924;2023-07-24T08:24:51;14.57;;;8.23;;
8421;SDS011;4248;48.196;10.924;2023-07-24T08:27:17;15.70;;;8.00;;
8421;SDS011;4248;48.196;10.924;2023-07-24T08:29:43;11.57;;;7.30;;
8421;SDS011;4248;48.196;10.924;2023-07-24T08:32:08;11.77;;;6.87;;
8421;SDS011;4248;48.196;10.924;2023-07-24T08:34:34;14.93;;;8.10;;
8421;SDS011;4248;48.196;10.924;2023-07-24T08:36:59;14.10;;;7.80;;
8421;SDS011;4248;48.196;10.924;2023-07-24T08:39:25;14.63;;;7.03;;
8421;SDS011;4248;48.196;10.924;2023-07-24T08:41:50;11.50;;;6.50;;
8421;SDS011;4248;48.196;10.924;2023-07-24T08:44:16;14.80;;;7.60;;
8421;SDS011;4248;48.196;10.924;2023-07-24T08:46:42;13.97;;;7.90;;
8421;SDS011;4248;48.196;10.924;2023-07-24T08:49:11;13.40;;;7.20;;
8421;SDS011;4248;48.196;10.924;2023-07-24T08:51:38;10.93;;;6.20;;
8421;SDS011;4248;48.196;10.924;2023-07-24T08:54:05;10.90;;;6.70;;
8421;SDS011;4248;48.196;10.924;2023-07-24T08:56:31;16.60;;;7.50;;
8421;SDS011;4248;48.196;10.924;2023-07-24T08:58:58;13.23;;;7.03;;
8421;SDS011;4248;48.196;10.924;2023-07-24T09:01:23;13.77;;;7.20;;
8421;SDS011;4248;48.196;10.924;2023-07-24T09:03:50;12.20;;;6.50;;
8421;SDS011;4248;48.196;10.924;2023-07-24T09:06:15;12.00;;;6.30;;
8421;SDS011;4248;48.196;10.924;2023-07-24T09:08:41;14.53;;;6.70;;
8421;SDS011;4248;48.196;10.924;2023-07-24T09:11:09;12.83;;;6.77;;
8421;SDS011;4248;48.196;10.924;2023-07-24T09:13:36;9.57;;;5.17;;
8421;SDS011;4248;48.196;10.924;2023-07-24T09:16:03;10.97;;;5.17;;
8421;SDS011;4248;48.196;10.924;2023-07-24T09:18:44;10.37;;;6.17;;
8421;SDS011;4248;48.196;10.924;2023-07-24T09:21:10;9.70;;;5.40;;
8421;SDS011;4248;48.196;10.924;2023-07-24T09:23:38;9.40;;;5.40;;
8421;SDS011;4248;48.196;10.924;2023-07-24T09:26:08;11.63;;;4.93;;
8421;SDS011;4248;48.196;10.924;2023-07-24T09:28:34;9.33;;;5.07;;
8421;SDS011;4248;48.196;10.924;2023-07-24T09:31:00;8.03;;;4.87;;
8421;SDS011;4248;48.196;10.924;2023-07-24T09:33:37;9.80;;;4.67;;
8421;SDS011;4248;48.196;10.924;2023-07-24T09:36:04;9.50;;;5.00;;
8421;SDS011;4248;48.196;10.924;2023-07-24T09:38:32;7.83;;;4.67;;
8421;SDS011;4248;48.196;10.924;2023-07-24T09:41:00;8.77;;;5.00;;
8421;SDS011;4248;48.196;10.924;2023-07-24T09:43:27;7.80;;;4.20;;
8421;SDS011;4248;48.196;10.924;2023-07-24T09:45:54;12.33;;;4.20;;
8421;SDS011;4248;48.196;10.924;2023-07-24T09:48:20;8.30;;;4.43;;
8421;SDS011;4248;48.196;10.924;2023-07-24T09:50:55;8.10;;;4.80;;
8421;SDS011;4248;48.196;10.924;2023-07-24T09:56:02;7.63;;;4.47;;
8421;SDS011;4248;48.196;10.924;2023-07-24T09:58:34;8.87;;;4.40;;
8421;SDS011;4248;48.196;10.924;2023-07-24T10:01:08;7.63;;;4.03;;
8421;SDS011;4248;48.196;10.924;2023-07-24T10:03:43;12.33;;;4.20;;
8421;SDS011;4248;48.196;10.924;2023-07-24T10:06:12;7.57;;;3.80;;
8421;SDS011;4248;48.196;10.924;2023-07-24T10:08:40;8.67;;;4.00;;
8421;SDS011;4248;48.196;10.924;2023-07-24T10:11:09;6.80;;;3.90;;
8421;SDS011;4248;48.196;10.924;2023-07-24T10:13:37;6.80;;;3.93;;
8421;SDS011;4248;48.196;10.924;2023-07-24T10:16:03;7.43;;;3.63;;
8421;SDS011;4248;48.196;10.924;2023-07-24T10:18:32;10.20;;;3.87;;
8421;SDS011;4248;48.196;10.924;2023-07-24T10:21:00;6.27;;;3.87;;
8421;SDS011;4248;48.196;10.924;2023-07-24T10:23:26;8.33;;;4.10;;
8421;SDS011;4248;48.196;10.924;2023-07-24T10:25:51;6.77;;;3.77;;
8421;SDS011;4248;48.196;10.924;2023-07-24T10:28:17;8.20;;;4.33;;
8421;SDS011;4248;48.196;10.924;2023-07-24T10:30:43;7.03;;;3.63;;
8421;SDS011;4248;48.196;10.924;2023-07-24T10:33:10;9.17;;;4.20;;
8421;SDS011;4248;48.196;10.924;2023-07-24T10:35:37;6.40;;;3.97;;
8421;SDS011;4248;48.196;10.924;2023-07-24T10:38:04;7.17;;;3.97;;
8421;SDS011;4248;48.196;10.924;2023-07-24T10:40:30;9.00;;;4.57;;
8421;SDS011;4248;48.196;10.924;2023-07-24T10:43:01;7.60;;;3.93;;
8421;SDS011;4248;48.196;10.924;2023-07-24T10:45:38;7.00;;;4.00;;
8421;SDS011;4248;48.196;10.924;2023-07-24T10:48:04;6.30;;;3.50;;
8421;SDS011;4248;48.196;10.924;2023-07-24T10:50:37;8.07;;;3.93;;
8421;SDS011;4248;48.196;10.924;2023-07-24T10:53:04;6.67;;;4.13;;
8421;SDS011;4248;48.196;10.924;2023-07-24T10:55:30;8.20;;;4.00;;
8421;SDS011;4248;48.196;10.924;2023-07-24T10:57:56;7.73;;;3.80;;
8421;SDS011;4248;48.196;10.924;2023-07-24T11:00:21;9.33;;;4.70;;
8421;SDS011;4248;48.196;10.924;2023-07-24T11:02:47;12.63;;;5.00;;
8421;SDS011;4248;48.196;10.924;2023-07-24T11:05:13;10.43;;;4.10;;
8421;SDS011;4248;48.196;10.924;2023-07-24T11:07:39;7.90;;;4.30;;
8421;SDS011;4248;48.196;10.924;2023-07-24T11:10:14;11.73;;;4.17;;
8421;SDS011;4248;48.196;10.924;2023-07-24T11:12:46;9.20;;;4.53;;
8421;SDS011;4248;48.196;10.924;2023-07-24T11:15:12;9.87;;;4.50;;
8421;SDS011;4248;48.196;10.924;2023-07-24T11:17:39;7.93;;;4.53;;
8421;SDS011;4248;48.196;10.924;2023-07-24T11:22:32;7.63;;;4.43;;
8421;SDS011;4248;48.196;10.924;2023-07-24T11:24:58;8.00;;;4.73;;
8421;SDS011;4248;48.196;10.924;2023-07-24T11:27:26;8.23;;;4.20;;
8421;SDS011;4248;48.196;10.924;2023-07-24T11:29:52;10.43;;;4.60;;
8421;SDS011;4248;48.196;10.924;2023-07-24T11:32:18;5.90;;;3.50;;
8421;SDS011;4248;48.196;10.924;2023-07-24T11:34:44;8.97;;;4.77;;
8421;SDS011;4248;48.196;10.924;2023-07-24T11:37:12;8.57;;;4.97;;
8421;SDS011;4248;48.196;10.924;2023-07-24T11:39:38;6.53;;;4.63;;
8421;SDS011;4248;48.196;10.924;2023-07-24T11:42:03;11.90;;;4.57;;
8421;SDS011;4248;48.196;10.924;2023-07-24T11:44:29;9.63;;;5.10;;
8421;SDS011;4248;48.196;10.924;2023-07-24T11:47:05;8.97;;;4.90;;
8421;SDS011;4248;48.196;10.924;2023-07-24T11:49:31;7.60;;;4.57;;
8421;SDS011;4248;48.196;10.924;2023-07-24T11:52:04;9.53;;;5.17;;
8421;SDS011;4248;48.196;10.924;2023-07-24T11:54:33;8.30;;;4.77;;
8421;SDS011;4248;48.196;10.924;2023-07-24T11:56:59;11.80;;;5.90;;
8421;SDS011;4248;48.196;10.924;2023-07-24T11:59:24;10.60;;;6.10;;
8421;SDS011;4248;48.196;10.924;2023-07-24T12:01:50;10.87;;;6.20;;
8421;SDS011;4248;48.196;10.924;2023-07-24T12:04:16;11.00;;;6.00;;
8421;SDS011;4248;48.196;10.924;2023-07-24T12:06:42;10.20;;;5.63;;
8421;SDS011;4248;48.196;10.924;2023-07-24T12:09:08;9.30;;;5.63;;
8421;SDS011;4248;48.196;10.924;2023-07-24T12:11:39;12.10;;;6.40;;
8421;SDS011;4248;48.196;10.924;2023-07-24T12:14:06;13.50;;;6.27;;
8421;SDS011;4248;48.196;10.924;2023-07-24T12:16:33;12.80;;;5.30;;
8421;SDS011;4248;48.196;10.924;2023-07-24T12:18:59;15.07;;;5.73;;
8421;SDS011;4248;48.196;10.924;2023-07-24T12:21:25;13.93;;;6.00;;
8421;SDS011;4248;48.196;10.924;2023-07-24T12:23:50;13.30;;;6.17;;
8421;SDS011;4248;48.196;10.924;2023-07-24T12:26:16;9.30;;;5.93;;
8421;SDS011;4248;48.196;10.924;2023-07-24T12:28:41;12.23;;;6.00;;
8421;SDS011;4248;48.196;10.924;2023-07-24T12:31:07;11.53;;;5.60;;
8421;SDS011;4248;48.196;10.924;2023-07-24T12:33:33;9.23;;;5.10;;
8421;SDS011;4248;48.196;10.924;2023-07-24T12:35:58;11.27;;;5.17;;
8421;SDS011;4248;48.196;10.924;2023-07-24T12:38:24;10.23;;;5.20;;
8421;SDS011;4248;48.196;10.924;2023-07-24T12:40:50;10.40;;;5.43;;
8421;SDS011;4248;48.196;10.924;2023-07-24T12:43:15;9.57;;;5.63;;
8421;SDS011;4248;48.196;10.924;2023-07-24T12:45:41;9.23;;;5.43;;
8421;SDS011;4248;48.196;10.924;2023-07-24T12:48:06;8.20;;;4.80;;
8421;SDS011;4248;48.196;10.924;2023-07-24T12:50:33;12.87;;;5.20;;
8421;SDS011;4248;48.196;10.924;2023-07-24T12:52:59;10.93;;;5.87;;
8421;SDS011;4248;48.196;10.924;2023-07-24T12:55:24;11.10;;;5.40;;
8421;SDS011;4248;48.196;10.924;2023-07-24T12:57:51;8.93;;;4.57;;
8421;SDS011;4248;48.196;10.924;2023-07-24T13:00:17;8.40;;;5.43;;
8421;SDS011;4248;48.196;10.924;2023-07-24T13:02:43;9.20;;;4.90;;
8421;SDS011;4248;48.196;10.924;2023-07-24T13:05:08;10.90;;;5.70;;
8421;SDS011;4248;48.196;10.924;2023-07-24T13:07:34;10.80;;;5.30;;
8421;SDS011;4248;48.196;10.924;2023-07-24T13:09:59;14.80;;;5.60;;
8421;SDS011;4248;48.196;10.924;2023-07-24T13:12:25;7.93;;;4.80;;
8421;SDS011;4248;48.196;10.924;2023-07-24T13:14:51;11.60;;;5.90;;
8421;SDS011;4248;48.196;10.924;2023-07-24T13:17:16;12.80;;;6.00;;
8421;SDS011;4248;48.196;10.924;2023-07-24T13:19:42;8.27;;;4.70;;
8421;SDS011;4248;48.196;10.924;2023-07-24T13:22:07;10.07;;;5.67;;
8421;SDS011;4248;48.196;10.924;2023-07-24T13:24:33;8.70;;;4.90;;
8421;SDS011;4248;48.196;10.924;2023-07-24T13:26:59;11.10;;;5.60;;
8421;SDS011;4248;48.196;10.924;2023-07-24T13:29:25;8.67;;;4.53;;
8421;SDS011;4248;48.196;10.924;2023-07-24T13:31:50;7.97;;;4.80;;
8421;SDS011;4248;48.196;10.924;2023-07-24T13:34:19;9.27;;;4.80;;
8421;SDS011;4248;48.196;10.924;2023-07-24T13:36:45;10.80;;;4.60;;
8421;SDS011;4248;48.196;10.924;2023-07-24T13:39:12;8.87;;;4.90;;
8421;SDS011;4248;48.196;10.924;2023-07-24T13:41:37;8.50;;;5.23;;
8421;SDS011;4248;48.196;10.924;2023-07-24T13:44:03;8.50;;;4.70;;
8421;SDS011;4248;48.196;10.924;2023-07-24T13:46:29;9.60;;;5.37;;
8421;SDS011;4248;48.196;10.924;2023-07-24T13:48:55;6.93;;;4.03;;
8421;SDS011;4248;48.196;10.924;2023-07-24T13:51:20;11.03;;;4.70;;
8421;SDS011;4248;48.196;10.924;2023-07-24T13:53:46;11.17;;;5.70;;
8421;SDS011;4248;48.196;10.924;2023-07-24T13:56:13;9.40;;;4.53;;
8421;SDS011;4248;48.196;10.924;2023-07-24T13:58:39;7.30;;;4.37;;
8421;SDS011;4248;48.196;10.924;2023-07-24T14:01:04;7.13;;;4.37;;
8421;SDS011;4248;48.196;10.924;2023-07-24T14:03:32;8.73;;;5.30;;
8421;SDS011;4248;48.196;10.924;2023-07-24T14:05:58;9.70;;;4.77;;
8421;SDS011;4248;48.196;10.924;2023-07-24T14:08:23;10.80;;;5.00;;
8421;SDS011;4248;48.196;10.924;2023-07-24T14:10:49;7.87;;;4.03;;
8421;SDS011;4248;48.196;10.924;2023-07-24T14:13:14;8.20;;;4.80;;
8421;SDS011;4248;48.196;10.924;2023-07-24T14:15:41;7.87;;;4.30;;
8421;SDS011;4248;48.196;10.924;2023-07-24T14:18:07;13.30;;;4.70;;
8421;SDS011;4248;48.196;10.924;2023-07-24T14:20:32;7.63;;;4.60;;
8421;SDS011;4248;48.196;10.924;2023-07-24T14:22:58;10.40;;;4.50;;
8421;SDS011;4248;48.196;10.924;2023-07-24T14:25:23;14.13;;;4.33;;
8421;SDS011;4248;48.196;10.924;2023-07-24T14:27:49;5.90;;;3.17;;
8421;SDS011;4248;48.196;10.924;2023-07-24T14:30:15;7.13;;;3.33;;
8421;SDS011;4248;48.196;10.924;2023-07-24T14:32:40;6.87;;;3.90;;
8421;SDS011;4248;48.196;10.924;2023-07-24T14:35:06;6.10;;;3.80;;
8421;SDS011;4248;48.196;10.924;2023-07-24T14:37:31;6.43;;;3.90;;
8421;SDS011;4248;48.196;10.924;2023-07-24T14:39:57;10.40;;;4.10;;
8421;SDS011;4248;48.196;10.924;2023-07-24T14:42:23;8.07;;;3.17;;
8421;SDS011;4248;48.196;10.924;2023-07-24T14:44:48;7.70;;;3.43;;
8421;SDS011;4248;48.196;10.924;2023-07-24T14:47:14;6.97;;;3.23;;
8421;SDS011;4248;48.196;10.924;2023-07-24T14:49:40;7.60;;;3.30;;
8421;SDS011;4248;48.196;10.924;2023-07-24T14:52:05;7.03;;;3.27;;